createdAt,value
2023-03-30T00:01:58.602Z,5.80
2023-03-30T00:04:27.441Z,5.80
2023-03-30T00:06:55.012Z,6.17
2023-03-30T00:09:23.006Z,12.70
2023-03-30T00:11:50.553Z,9.10
2023-03-30T00:14:19.839Z,5.30
2023-03-30T00:16:47.255Z,8.00
2023-03-30T00:19:16.876Z,5.53
2023-03-30T00:21:45.562Z,6.00
2023-03-30T00:24:12.964Z,10.60
2023-03-30T00:26:40.312Z,7.63
2023-03-30T00:29:07.645Z,5.33
2023-03-30T00:31:35.004Z,8.07
2023-03-30T00:34:02.479Z,4.20
2023-03-30T00:36:30.736Z,9.93
2023-03-30T00:38:58.146Z,15.57
2023-03-30T00:41:25.477Z,5.33
2023-03-30T00:44:15.519Z,5.80
2023-03-30T00:46:42.843Z,10.13
2023-03-30T00:49:12.357Z,8.67
2023-03-30T00:51:41.846Z,6.17
2023-03-30T00:54:16.218Z,6.77
2023-03-30T00:56:43.615Z,9.23
2023-03-30T00:59:11.423Z,9.73
2023-03-30T01:01:40.486Z,9.93
2023-03-30T01:04:08.569Z,6.47
2023-03-30T01:06:36.810Z,10.70
2023-03-30T01:09:04.439Z,4.30
2023-03-30T01:11:31.720Z,10.57
2023-03-30T01:14:03.416Z,7.50
2023-03-30T01:16:39.914Z,6.20
2023-03-30T01:19:07.402Z,10.40
2023-03-30T01:21:55.660Z,6.43
2023-03-30T01:24:42.979Z,12.33
2023-03-30T01:27:11.082Z,8.73
2023-03-30T01:29:44.320Z,8.53
2023-03-30T01:32:35.418Z,13.93
2023-03-30T01:35:25.799Z,13.87
2023-03-30T01:38:08.366Z,8.87
2023-03-30T01:40:49.882Z,10.13
2023-03-30T01:43:29.250Z,6.30
2023-03-30T01:46:01.336Z,7.97
2023-03-30T01:48:46.024Z,9.80
2023-03-30T01:51:20.693Z,4.90
2023-03-30T01:53:51.414Z,12.83
2023-03-30T01:56:27.465Z,6.87
2023-03-30T01:58:58.211Z,6.43
2023-03-30T02:01:27.918Z,8.80
2023-03-30T02:03:58.030Z,6.50
2023-03-30T02:06:31.165Z,9.13
2023-03-30T02:09:00.459Z,6.00
2023-03-30T02:11:30.040Z,5.20
2023-03-30T02:13:58.928Z,10.47
2023-03-30T02:16:33.074Z,7.37
2023-03-30T02:19:01.281Z,9.60
2023-03-30T02:21:30.198Z,10.80
2023-03-30T02:23:59.015Z,9.27
2023-03-30T02:26:27.580Z,9.67
2023-03-30T02:28:55.180Z,8.00
2023-03-30T02:31:23.078Z,8.77
2023-03-30T02:34:05.885Z,9.53
2023-03-30T02:36:43.127Z,8.83
2023-03-30T02:39:22.422Z,11.27
2023-03-30T02:42:13.241Z,9.13
2023-03-30T02:44:51.935Z,6.10
2023-03-30T02:47:43.055Z,9.97
2023-03-30T02:50:15.690Z,6.80
2023-03-30T02:52:49.234Z,6.20
2023-03-30T02:55:24.168Z,8.87
2023-03-30T02:57:51.468Z,10.93
2023-03-30T03:00:22.843Z,7.40
2023-03-30T03:02:53.916Z,8.60
2023-03-30T03:05:25.460Z,5.67
2023-03-30T03:07:53.843Z,7.43
2023-03-30T03:10:21.887Z,8.00
2023-03-30T03:12:49.345Z,8.73
2023-03-30T03:15:16.844Z,11.87
2023-03-30T03:17:45.490Z,6.13
2023-03-30T03:20:13.931Z,9.83
2023-03-30T03:22:41.404Z,9.10
2023-03-30T03:25:10.430Z,7.40
2023-03-30T03:27:37.809Z,8.47
2023-03-30T03:30:05.902Z,10.37
2023-03-30T03:32:33.224Z,10.33
2023-03-30T03:35:00.804Z,12.03
2023-03-30T03:37:28.126Z,7.60
2023-03-30T03:39:55.811Z,12.00
2023-03-30T03:42:23.165Z,6.43
2023-03-30T03:44:50.835Z,9.67
2023-03-30T03:47:18.329Z,7.30
2023-03-30T03:49:45.685Z,5.40
2023-03-30T03:52:13.087Z,5.10
2023-03-30T03:54:40.471Z,13.10
2023-03-30T03:57:08.076Z,9.57
2023-03-30T03:59:35.469Z,7.40
2023-03-30T04:02:02.842Z,9.47
2023-03-30T04:04:30.549Z,13.83
2023-03-30T04:06:57.962Z,8.73
2023-03-30T04:09:26.101Z,8.13
2023-03-30T04:11:53.523Z,7.97
2023-03-30T04:14:20.964Z,9.23
2023-03-30T04:16:49.333Z,13.23
2023-03-30T04:19:16.896Z,7.17
2023-03-30T04:21:47.271Z,10.23
2023-03-30T04:24:15.043Z,7.27
2023-03-30T04:26:45.881Z,9.23
2023-03-30T04:29:15.606Z,8.23
2023-03-30T04:31:47.305Z,6.80
2023-03-30T04:34:14.784Z,11.63
2023-03-30T04:36:45.332Z,8.43
2023-03-30T04:39:13.889Z,12.30
2023-03-30T04:41:41.940Z,5.57
2023-03-30T04:44:10.848Z,12.23
2023-03-30T04:46:38.447Z,7.07
2023-03-30T04:49:06.059Z,11.37
2023-03-30T04:51:33.572Z,7.37
2023-03-30T04:54:02.466Z,10.67
2023-03-30T04:56:29.852Z,6.77
2023-03-30T04:58:57.459Z,6.03
2023-03-30T05:01:26.845Z,9.10
2023-03-30T05:03:54.282Z,8.10
2023-03-30T05:06:21.891Z,12.10
2023-03-30T05:08:49.419Z,6.27
2023-03-30T05:11:16.808Z,6.20
2023-03-30T05:13:44.255Z,7.63
2023-03-30T05:16:11.972Z,9.03
2023-03-30T05:18:39.536Z,14.90
2023-03-30T05:23:34.376Z,8.33
2023-03-30T05:26:03.765Z,9.50
2023-03-30T05:28:32.574Z,7.47
2023-03-30T05:31:00.196Z,7.83
2023-03-30T05:33:27.581Z,11.97
2023-03-30T05:35:55.755Z,9.60
2023-03-30T05:38:23.159Z,12.73
2023-03-30T05:40:53.985Z,8.53
2023-03-30T05:43:21.603Z,10.90
2023-03-30T05:45:49.167Z,12.97
2023-03-30T05:48:16.738Z,10.87
2023-03-30T05:50:44.328Z,9.63
2023-03-30T05:53:12.089Z,11.73
2023-03-30T05:55:39.359Z,10.43
2023-03-30T05:58:06.751Z,7.10
2023-03-30T06:00:36.774Z,12.17
2023-03-30T06:03:04.727Z,9.43
2023-03-30T06:05:33.849Z,11.47
2023-03-30T06:08:01.176Z,12.33
2023-03-30T06:10:28.508Z,13.50
2023-03-30T06:12:56.096Z,10.97
2023-03-30T06:15:23.823Z,7.27
2023-03-30T06:17:52.986Z,10.87
2023-03-30T06:20:21.879Z,11.50
2023-03-30T06:22:49.450Z,9.70
2023-03-30T06:25:17.006Z,9.10
2023-03-30T06:27:44.939Z,10.13
2023-03-30T06:30:12.887Z,7.03
2023-03-30T06:32:40.168Z,6.47
2023-03-30T06:35:07.765Z,9.90
2023-03-30T06:37:36.777Z,10.97
2023-03-30T06:40:13.968Z,5.07
2023-03-30T06:42:44.886Z,14.67
2023-03-30T06:45:12.754Z,11.13
2023-03-30T06:47:41.765Z,17.90
2023-03-30T06:50:09.489Z,12.33
2023-03-30T06:52:37.646Z,10.30
2023-03-30T06:55:05.543Z,14.33
2023-03-30T06:57:33.164Z,14.37
2023-03-30T07:00:00.521Z,5.17
2023-03-30T07:02:28.059Z,10.77
2023-03-30T07:04:55.809Z,13.43
2023-03-30T07:07:23.166Z,7.03
2023-03-30T07:09:50.563Z,8.97
2023-03-30T07:12:18.005Z,11.30
2023-03-30T07:14:45.605Z,7.47
2023-03-30T07:17:13.191Z,9.90
2023-03-30T07:19:40.688Z,13.30
2023-03-30T07:22:08.369Z,10.30
2023-03-30T07:24:35.763Z,8.03
2023-03-30T07:27:03.174Z,8.00
2023-03-30T07:29:30.610Z,10.53
2023-03-30T07:31:58.441Z,10.77
2023-03-30T07:34:25.978Z,14.93
2023-03-30T07:36:54.708Z,12.80
2023-03-30T07:39:22.217Z,16.17
2023-03-30T07:41:49.645Z,10.40
2023-03-30T07:44:17.089Z,7.80
2023-03-30T07:46:44.514Z,6.53
2023-03-30T07:49:12.122Z,7.73
2023-03-30T07:51:39.814Z,9.13
2023-03-30T07:54:07.087Z,7.53
2023-03-30T07:56:35.242Z,9.47
2023-03-30T07:59:02.646Z,8.00
2023-03-30T08:01:34.082Z,9.17
2023-03-30T08:04:02.595Z,10.43
2023-03-30T08:06:30.685Z,10.77
2023-03-30T08:08:58.042Z,8.73
2023-03-30T08:11:25.402Z,13.53
2023-03-30T08:13:52.724Z,10.27
2023-03-30T08:16:20.249Z,13.27
2023-03-30T08:18:47.605Z,11.97
2023-03-30T08:21:15.086Z,13.53
2023-03-30T08:23:42.481Z,8.87
2023-03-30T08:26:09.803Z,11.03
2023-03-30T08:28:38.185Z,9.90
2023-03-30T08:31:06.965Z,16.83
2023-03-30T08:33:35.179Z,10.40
2023-03-30T08:36:02.634Z,14.53
2023-03-30T08:38:30.125Z,12.33
2023-03-30T08:40:57.401Z,6.37
2023-03-30T08:43:24.801Z,14.37
2023-03-30T08:45:52.559Z,13.17
2023-03-30T08:48:25.120Z,12.73
2023-03-30T08:50:52.549Z,15.07
2023-03-30T08:53:20.282Z,11.93
2023-03-30T08:55:50.444Z,13.93
2023-03-30T08:58:21.104Z,12.50
2023-03-30T09:01:08.801Z,21.27
2023-03-30T09:03:46.445Z,24.27
2023-03-30T09:06:19.406Z,9.97
2023-03-30T09:08:48.133Z,8.40
2023-03-30T09:11:20.081Z,11.40
2023-03-30T09:13:47.802Z,10.20
2023-03-30T09:16:31.499Z,11.87
2023-03-30T09:18:59.467Z,14.27
2023-03-30T09:21:31.208Z,11.73
2023-03-30T09:24:00.052Z,13.93
2023-03-30T09:26:42.481Z,14.67
2023-03-30T09:29:17.324Z,9.40
2023-03-30T09:31:48.364Z,13.30
2023-03-30T09:34:21.692Z,16.00
2023-03-30T09:36:57.820Z,9.70
2023-03-30T09:39:27.381Z,9.30
2023-03-30T09:42:01.239Z,9.50
2023-03-30T09:44:37.355Z,11.43
2023-03-30T09:47:16.630Z,11.57
2023-03-30T09:49:44.042Z,12.87
2023-03-30T09:52:19.964Z,16.13
2023-03-30T09:54:47.405Z,10.10
2023-03-30T09:57:28.818Z,11.50
2023-03-30T09:59:57.108Z,9.53
2023-03-30T10:02:26.044Z,11.67
2023-03-30T10:04:53.626Z,11.17
2023-03-30T10:07:25.647Z,13.67
2023-03-30T10:09:53.203Z,12.80
2023-03-30T10:12:22.244Z,18.43
2023-03-30T10:14:54.283Z,15.20
2023-03-30T10:17:23.362Z,13.23
2023-03-30T10:20:00.400Z,10.50
2023-03-30T10:22:38.204Z,11.83
2023-03-30T10:25:10.217Z,9.23
2023-03-30T10:27:39.886Z,12.50
2023-03-30T10:30:11.363Z,9.00
2023-03-30T10:32:38.954Z,8.60
2023-03-30T10:35:10.400Z,12.00
2023-03-30T10:37:46.484Z,10.20
2023-03-30T10:40:22.091Z,8.63
2023-03-30T10:42:51.565Z,11.80
2023-03-30T10:45:21.728Z,15.43
2023-03-30T10:48:00.128Z,16.07
2023-03-30T10:50:32.883Z,14.00
2023-03-30T10:53:18.568Z,16.40
2023-03-30T10:56:03.673Z,8.70
2023-03-30T10:58:31.216Z,10.13
2023-03-30T11:01:01.613Z,14.10
2023-03-30T11:03:32.874Z,14.13
2023-03-30T11:06:09.926Z,12.97
2023-03-30T11:08:39.486Z,8.37
2023-03-30T11:11:07.850Z,12.63
2023-03-30T11:13:39.325Z,11.43
2023-03-30T11:16:19.752Z,9.20
2023-03-30T11:18:49.776Z,11.93
2023-03-30T11:21:26.324Z,11.90
2023-03-30T11:23:53.738Z,8.93
2023-03-30T11:26:43.132Z,10.83
2023-03-30T11:29:19.327Z,9.30
2023-03-30T11:31:54.827Z,6.30
2023-03-30T11:34:25.202Z,11.70
2023-03-30T11:37:12.760Z,16.30
2023-03-30T11:39:42.287Z,9.77
2023-03-30T11:42:18.043Z,11.57
2023-03-30T11:44:45.328Z,12.07
2023-03-30T11:47:31.889Z,10.47
2023-03-30T11:50:17.966Z,7.40
2023-03-30T11:52:48.324Z,9.67
2023-03-30T11:55:18.764Z,8.23
2023-03-30T11:57:53.566Z,8.97
2023-03-30T12:00:40.758Z,8.63
2023-03-30T12:03:41.050Z,7.67
2023-03-30T12:06:11.490Z,6.70
2023-03-30T12:08:56.986Z,8.83
2023-03-30T12:11:27.571Z,11.37
2023-03-30T12:13:55.208Z,6.13
2023-03-30T12:16:46.999Z,9.40
2023-03-30T12:19:17.805Z,11.33
2023-03-30T12:21:52.472Z,11.30
2023-03-30T12:24:24.684Z,14.57
2023-03-30T12:27:04.642Z,9.13
2023-03-30T12:30:01.778Z,16.73
2023-03-30T12:32:30.542Z,12.53
2023-03-30T12:34:58.368Z,9.17
2023-03-30T12:37:33.731Z,11.23
2023-03-30T12:40:08.621Z,9.27
2023-03-30T12:42:47.133Z,9.10
2023-03-30T12:45:14.581Z,9.17
2023-03-30T12:47:45.006Z,9.07
2023-03-30T12:50:18.693Z,7.60
2023-03-30T12:52:54.848Z,8.47
2023-03-30T12:55:28.008Z,8.17
2023-03-30T12:58:03.244Z,7.83
2023-03-30T13:00:30.614Z,7.77
2023-03-30T13:03:18.611Z,13.37
2023-03-30T13:05:46.484Z,8.90
2023-03-30T13:08:22.093Z,12.70
2023-03-30T13:10:49.445Z,6.53
2023-03-30T13:13:18.609Z,8.97
2023-03-30T13:15:50.416Z,9.80
2023-03-30T13:18:17.654Z,7.37
2023-03-30T13:20:48.208Z,9.03
2023-03-30T13:23:15.769Z,5.60
2023-03-30T13:25:49.954Z,7.50
2023-03-30T13:28:35.886Z,7.67
2023-03-30T13:31:12.296Z,8.90
2023-03-30T13:33:44.021Z,5.50
2023-03-30T13:36:19.293Z,4.37
2023-03-30T13:38:55.883Z,10.07
2023-03-30T13:41:30.561Z,5.00
2023-03-30T13:43:57.841Z,8.23
2023-03-30T13:46:36.480Z,7.40
2023-03-30T13:49:12.681Z,4.00
2023-03-30T13:51:42.865Z,3.73
2023-03-30T13:54:16.120Z,7.60
2023-03-30T13:56:47.463Z,8.83
2023-03-30T13:59:17.448Z,3.87
2023-03-30T14:01:51.751Z,7.33
2023-03-30T14:04:19.134Z,5.90
2023-03-30T14:06:49.923Z,5.63
2023-03-30T14:09:22.806Z,2.13
2023-03-30T14:11:52.171Z,4.40
2023-03-30T14:14:23.281Z,5.83
2023-03-30T14:16:51.445Z,6.17
2023-03-30T14:19:25.083Z,7.43
2023-03-30T14:21:56.447Z,7.97
2023-03-30T14:24:34.001Z,3.93
2023-03-30T14:27:06.408Z,4.77
2023-03-30T14:29:34.166Z,7.57
2023-03-30T14:34:34.122Z,7.23
2023-03-30T14:37:06.605Z,8.07
2023-03-30T14:39:38.617Z,8.00
2023-03-30T14:42:11.070Z,8.97
2023-03-30T14:44:41.526Z,8.00
2023-03-30T14:47:08.978Z,5.93
2023-03-30T14:49:36.928Z,8.57
2023-03-30T14:52:09.125Z,6.40
2023-03-30T14:54:37.604Z,6.70
2023-03-30T14:57:07.519Z,6.83
2023-03-30T14:59:39.258Z,6.93
2023-03-30T15:02:13.202Z,5.10
2023-03-30T15:04:41.013Z,3.23
2023-03-30T15:07:08.524Z,4.80
2023-03-30T15:09:40.682Z,7.23
2023-03-30T15:12:08.324Z,6.43
2023-03-30T15:14:40.805Z,10.00
2023-03-30T15:17:12.776Z,6.43
2023-03-30T15:19:40.414Z,8.83
2023-03-30T15:22:18.724Z,5.80
2023-03-30T15:24:46.168Z,7.03
2023-03-30T15:27:14.766Z,10.90
2023-03-30T15:29:45.097Z,6.23
2023-03-30T15:32:16.374Z,7.60
2023-03-30T15:35:19.123Z,5.90
2023-03-30T15:37:55.238Z,6.50
2023-03-30T15:40:41.360Z,5.60
2023-03-30T15:43:20.707Z,7.20
2023-03-30T15:45:51.043Z,8.63
2023-03-30T15:48:20.508Z,7.17
2023-03-30T15:50:49.805Z,7.93
2023-03-30T15:53:20.487Z,6.10
2023-03-30T15:55:51.725Z,4.33
2023-03-30T15:58:22.082Z,7.60
2023-03-30T16:00:49.640Z,6.67
2023-03-30T16:03:20.363Z,6.20
2023-03-30T16:05:47.777Z,6.60
2023-03-30T16:08:15.162Z,5.47
2023-03-30T16:10:42.606Z,7.90
2023-03-30T16:13:11.769Z,5.73
2023-03-30T16:15:39.363Z,4.67
2023-03-30T16:18:06.818Z,5.10
2023-03-30T16:20:34.971Z,3.40
2023-03-30T16:23:02.416Z,3.33
2023-03-30T16:28:00.364Z,4.13
2023-03-30T16:30:38.636Z,4.33
2023-03-30T16:33:06.412Z,5.80
2023-03-30T16:35:33.754Z,4.50
2023-03-30T16:38:01.330Z,4.67
2023-03-30T16:40:34.971Z,5.80
2023-03-30T16:43:02.448Z,4.20
2023-03-30T16:45:30.071Z,5.67
2023-03-30T16:47:57.586Z,6.47
2023-03-30T16:50:28.046Z,3.07
2023-03-30T16:52:55.407Z,4.57
2023-03-30T16:55:22.769Z,3.57
2023-03-30T16:57:50.569Z,3.13
2023-03-30T17:00:19.542Z,3.57
2023-03-30T17:02:47.213Z,3.87
2023-03-30T17:05:14.980Z,4.43
2023-03-30T17:07:42.841Z,5.27
2023-03-30T17:10:27.245Z,4.30
2023-03-30T17:12:55.532Z,3.23
2023-03-30T17:15:23.601Z,4.23
2023-03-30T17:17:51.660Z,4.40
2023-03-30T17:20:31.727Z,3.03
2023-03-30T17:22:59.288Z,7.50
2023-03-30T17:25:27.125Z,3.60
2023-03-30T17:27:55.616Z,7.10
2023-03-30T17:30:26.043Z,3.37
2023-03-30T17:32:55.380Z,2.50
2023-03-30T17:35:23.564Z,5.70
2023-03-30T17:37:51.549Z,6.43
2023-03-30T17:40:23.281Z,3.60
2023-03-30T17:42:51.043Z,3.80
2023-03-30T17:45:19.926Z,3.57
2023-03-30T17:47:47.753Z,6.67
2023-03-30T17:50:34.601Z,3.37
2023-03-30T17:53:02.523Z,4.87
2023-03-30T17:55:31.808Z,3.23
2023-03-30T17:57:59.800Z,2.67
2023-03-30T18:00:34.081Z,3.57
2023-03-30T18:03:01.692Z,6.70
2023-03-30T18:05:32.052Z,8.13
2023-03-30T18:07:59.691Z,14.07
2023-03-30T18:10:28.377Z,4.93
2023-03-30T18:12:56.209Z,5.17
2023-03-30T18:15:25.686Z,2.90
2023-03-30T18:17:53.473Z,4.93
2023-03-30T18:20:39.291Z,5.77
2023-03-30T18:23:06.665Z,4.17
2023-03-30T18:25:34.126Z,3.47
2023-03-30T18:28:02.483Z,3.70
2023-03-30T18:30:32.634Z,2.73
2023-03-30T18:33:00.377Z,2.10
2023-03-30T18:35:29.602Z,2.60
2023-03-30T18:37:57.883Z,2.57
2023-03-30T18:40:26.881Z,3.47
2023-03-30T18:42:54.918Z,4.80
2023-03-30T18:45:34.259Z,2.47
2023-03-30T18:48:02.802Z,3.70
2023-03-30T18:50:37.378Z,3.77
2023-03-30T18:53:06.084Z,3.00
2023-03-30T18:55:34.441Z,4.13
2023-03-30T18:58:02.678Z,3.47
2023-03-30T19:00:31.438Z,2.93
2023-03-30T19:03:02.662Z,3.80
2023-03-30T19:05:31.141Z,4.23
2023-03-30T19:07:58.535Z,6.20
2023-03-30T19:10:30.448Z,11.03
2023-03-30T19:12:57.972Z,9.87
2023-03-30T19:15:29.562Z,4.30
2023-03-30T19:17:57.001Z,6.37
2023-03-30T19:20:26.441Z,3.27
2023-03-30T19:22:53.925Z,2.03
2023-03-30T19:25:22.337Z,3.83
2023-03-30T19:28:02.041Z,2.10
2023-03-30T19:30:33.028Z,3.40
2023-03-30T19:33:02.871Z,7.47
2023-03-30T19:35:30.716Z,3.17
2023-03-30T19:37:58.371Z,5.23
2023-03-30T19:40:26.207Z,4.03
2023-03-30T19:42:53.564Z,2.93
2023-03-30T19:45:23.024Z,2.73
2023-03-30T19:47:51.523Z,2.30
2023-03-30T19:50:19.964Z,4.00
2023-03-30T19:52:50.267Z,4.00
2023-03-30T19:55:21.003Z,3.20
2023-03-30T19:57:49.809Z,5.10
2023-03-30T20:00:18.279Z,2.00
2023-03-30T20:02:46.776Z,4.63
2023-03-30T20:05:15.939Z,3.90
2023-03-30T20:07:44.044Z,2.80
2023-03-30T20:10:12.923Z,2.67
2023-03-30T20:12:40.404Z,2.03
2023-03-30T20:15:08.575Z,3.40
2023-03-30T20:17:37.137Z,2.17
2023-03-30T20:20:09.409Z,3.73
2023-03-30T20:22:37.733Z,2.30
2023-03-30T20:25:07.766Z,3.30
2023-03-30T20:27:35.649Z,2.67
2023-03-30T20:30:03.537Z,2.47
2023-03-30T20:32:30.893Z,3.57
2023-03-30T20:34:58.844Z,3.37
2023-03-30T20:37:26.283Z,3.20
2023-03-30T20:39:53.567Z,2.27
2023-03-30T20:42:26.347Z,3.87
2023-03-30T20:44:54.448Z,4.97
2023-03-30T20:47:26.262Z,3.80
2023-03-30T20:49:53.924Z,3.27
2023-03-30T20:52:22.408Z,2.27
2023-03-30T20:54:49.684Z,2.87
2023-03-30T20:57:17.293Z,2.27
2023-03-30T20:59:48.108Z,1.73
2023-03-30T21:02:16.177Z,3.07
2023-03-30T21:04:44.649Z,2.17
2023-03-30T21:07:12.492Z,3.27
2023-03-30T21:09:40.168Z,2.33
2023-03-30T21:12:09.802Z,3.70
2023-03-30T21:14:37.292Z,2.60
2023-03-30T21:17:04.956Z,4.40
2023-03-30T21:19:32.651Z,3.40
2023-03-30T21:22:01.265Z,8.07
2023-03-30T21:24:28.894Z,6.63
2023-03-30T21:26:56.522Z,3.67
2023-03-30T21:29:24.057Z,2.87
2023-03-30T21:31:51.652Z,2.43
2023-03-30T21:34:20.254Z,4.37
2023-03-30T21:36:47.702Z,3.00
2023-03-30T21:39:15.611Z,5.17
2023-03-30T21:41:43.207Z,3.20
2023-03-30T21:44:10.508Z,2.43
2023-03-30T21:46:37.975Z,3.37
2023-03-30T21:49:05.373Z,2.80
2023-03-30T21:51:32.738Z,2.30
2023-03-30T21:54:00.728Z,2.87
2023-03-30T21:56:29.573Z,5.53
2023-03-30T21:58:57.683Z,3.53
2023-03-30T22:01:25.048Z,3.90
2023-03-30T22:03:53.236Z,4.90
2023-03-30T22:06:21.006Z,2.70
2023-03-30T22:08:48.283Z,2.10
2023-03-30T22:11:17.029Z,2.73
2023-03-30T22:13:46.151Z,3.03
2023-03-30T22:16:17.271Z,5.77
2023-03-30T22:18:45.363Z,4.37
2023-03-30T22:21:14.365Z,2.73
2023-03-30T22:23:42.208Z,3.60
2023-03-30T22:26:10.007Z,2.10
2023-03-30T22:28:37.482Z,2.63
2023-03-30T22:31:08.425Z,3.27
2023-03-30T22:33:35.880Z,4.13
2023-03-30T22:36:03.837Z,4.53
2023-03-30T22:38:31.658Z,1.77
2023-03-30T22:41:07.915Z,2.07
2023-03-30T22:43:36.062Z,3.60
2023-03-30T22:46:04.338Z,2.30
2023-03-30T22:48:32.341Z,4.47
2023-03-30T22:51:03.895Z,2.17
2023-03-30T22:53:31.851Z,2.80
2023-03-30T22:55:59.373Z,3.43
2023-03-30T22:58:26.898Z,4.03
2023-03-30T23:00:59.648Z,3.57
2023-03-30T23:03:27.048Z,2.93
2023-03-30T23:05:56.043Z,5.37
2023-03-30T23:08:24.214Z,3.83
2023-03-30T23:10:54.019Z,2.67
2023-03-30T23:13:21.280Z,4.80
2023-03-30T23:15:48.964Z,3.30
2023-03-30T23:18:16.759Z,2.10
2023-03-30T23:20:46.887Z,3.83
2023-03-30T23:23:14.921Z,5.50
2023-03-30T23:25:50.303Z,4.63
2023-03-30T23:28:18.068Z,4.83
2023-03-30T23:30:45.600Z,4.07
2023-03-30T23:33:13.594Z,2.00
2023-03-30T23:35:44.217Z,4.30
2023-03-30T23:38:11.683Z,2.67
2023-03-30T23:40:39.039Z,4.00
2023-03-30T23:43:06.446Z,3.37
2023-03-30T23:45:33.842Z,2.63
2023-03-30T23:48:01.308Z,3.33
2023-03-30T23:50:29.103Z,3.40
2023-03-30T23:52:57.763Z,4.30
2023-03-30T23:55:25.173Z,2.47
2023-03-30T23:57:55.563Z,2.50
